createdAt,value
2022-08-05T00:02:14.737Z,99760.14
2022-08-05T00:04:55.542Z,99765.86
2022-08-05T00:07:58.807Z,99763.64
2022-08-05T00:09:57.749Z,99764.98
2022-08-05T00:12:31.424Z,99767.19
2022-08-05T00:15:54.007Z,99768.97
2022-08-05T00:17:39.830Z,99770.74
2022-08-05T00:20:14.487Z,99784.45
2022-08-05T00:22:59.603Z,99788.86
2022-08-05T00:25:23.328Z,99787.52
2022-08-05T00:27:56.093Z,99790.61
2022-08-05T00:30:32.039Z,99782.63
2022-08-05T00:33:03.932Z,99798.97
2022-08-05T00:35:37.534Z,99800.72
2022-08-05T00:38:11.926Z,99803.80
2022-08-05T00:40:54.387Z,99800.69
2022-08-05T00:43:27.243Z,99793.63
2022-08-05T00:46:02.066Z,99791.41
2022-08-05T00:48:35.968Z,99791.89
2022-08-05T00:51:50.235Z,99791.04
2022-08-05T00:54:02.319Z,99791.05
2022-08-05T00:56:20.474Z,99801.23
2022-08-05T00:58:54.965Z,99803.42
2022-08-05T01:01:48.246Z,99806.98
2022-08-05T01:04:13.770Z,99804.28
2022-08-05T01:06:40.732Z,99801.59
2022-08-05T01:09:15.512Z,99805.94
2022-08-05T01:11:52.516Z,99812.59
2022-08-05T01:14:43.134Z,99813.91
2022-08-05T01:17:32.221Z,99816.95
2022-08-05T01:20:33.879Z,99814.73
2022-08-05T01:23:43.004Z,99806.75
2022-08-05T01:26:28.089Z,99815.17
2022-08-05T01:29:23.031Z,99798.30
2022-08-05T01:31:58.541Z,99802.73
2022-08-05T01:34:39.884Z,99812.52
2022-08-05T01:37:32.724Z,99808.14
2022-08-05T01:40:08.154Z,99800.18
2022-08-05T01:42:43.562Z,99798.39
2022-08-05T01:45:18.136Z,99794.00
2022-08-05T01:47:54.546Z,99791.41
2022-08-05T01:50:38.123Z,99782.18
2022-08-05T01:53:17.160Z,99778.63
2022-08-05T01:55:52.864Z,99781.77
2022-08-05T01:58:41.036Z,99783.53
2022-08-05T02:01:04.923Z,99778.22
2022-08-05T02:03:45.299Z,99768.05
2022-08-05T02:06:38.431Z,99758.73
2022-08-05T02:08:58.327Z,99754.30
2022-08-05T02:11:33.184Z,99757.85
2022-08-05T02:14:13.642Z,99757.41
2022-08-05T02:16:55.715Z,99764.08
2022-08-05T02:19:40.587Z,99760.98
2022-08-05T02:22:26.618Z,99755.67
2022-08-05T02:25:06.589Z,99749.50
2022-08-05T02:27:58.927Z,99766.27
2022-08-05T02:30:17.037Z,99771.11
2022-08-05T02:32:52.855Z,99773.73
2022-08-05T02:35:37.454Z,99773.71
2022-08-05T02:38:03.215Z,99777.19
2022-08-05T02:40:36.612Z,99771.86
2022-08-05T02:43:09.547Z,99771.83
2022-08-05T02:45:52.519Z,99766.94
2022-08-05T02:48:19.764Z,99770.42
2022-08-05T02:50:54.939Z,99778.80
2022-08-05T02:53:28.557Z,99778.29
2022-08-05T02:56:02.904Z,99782.25
2022-08-05T02:58:43.748Z,99776.92
2022-08-05T03:01:27.318Z,99772.91
2022-08-05T03:04:14.048Z,99777.31
2022-08-05T03:06:54.482Z,99778.63
2022-08-05T03:09:17.843Z,99783.53
2022-08-05T03:11:55.421Z,99784.92
2022-08-05T03:14:26.335Z,99783.22
2022-08-05T03:16:59.287Z,99780.14
2022-08-05T03:19:34.513Z,99767.35
2022-08-05T03:22:16.760Z,99781.48
2022-08-05T03:24:42.495Z,99790.78
2022-08-05T03:27:17.281Z,99775.77
2022-08-05T03:30:08.049Z,99779.75
2022-08-05T03:32:30.924Z,99780.25
2022-08-05T03:34:59.896Z,99790.91
2022-08-05T03:37:41.754Z,99802.49
2022-08-05T03:40:11.989Z,99795.95
2022-08-05T03:42:52.450Z,99793.34
2022-08-05T03:45:21.386Z,99801.35
2022-08-05T03:47:56.856Z,99804.10
2022-08-05T03:50:35.870Z,99797.16
2022-08-05T03:55:51.843Z,99807.44
2022-08-05T03:56:10.395Z,99797.34
2022-08-05T03:58:38.108Z,99790.78
2022-08-05T04:01:13.448Z,99787.73
2022-08-05T04:04:10.190Z,99789.59
2022-08-05T04:06:22.518Z,99799.36
2022-08-05T04:08:57.462Z,99792.72
2022-08-05T04:11:47.387Z,99792.72
2022-08-05T04:14:07.424Z,99786.52
2022-08-05T04:16:40.727Z,99790.50
2022-08-05T04:19:14.859Z,99792.28
2022-08-05T04:22:10.163Z,99779.37
2022-08-05T04:24:23.671Z,99780.72
2022-08-05T04:26:58.331Z,99778.52
2022-08-05T04:29:32.239Z,99781.63
2022-08-05T04:32:05.838Z,99778.52
2022-08-05T04:34:42.898Z,99774.06
2022-08-05T04:37:14.850Z,99762.53
2022-08-05T04:39:52.946Z,99765.19
2022-08-05T04:42:25.428Z,99765.19
2022-08-05T04:44:58.483Z,99757.19
2022-08-05T04:47:38.620Z,99759.83
2022-08-05T04:50:11.614Z,99754.03
2022-08-05T04:52:42.341Z,99762.86
2022-08-05T04:55:17.189Z,99762.86
2022-08-05T04:57:54.261Z,99768.62
2022-08-05T05:00:26.177Z,99762.82
2022-08-05T05:03:03.670Z,99766.34
2022-08-05T05:05:34.935Z,99765.87
2022-08-05T05:08:14.436Z,99775.20
2022-08-05T05:10:56.303Z,99769.39
2022-08-05T05:13:22.703Z,99778.23
2022-08-05T05:15:59.523Z,99778.23
2022-08-05T05:18:33.731Z,99785.27
2022-08-05T05:21:05.641Z,99779.46
2022-08-05T05:24:03.721Z,99781.68
2022-08-05T05:26:13.468Z,99784.73
2022-08-05T05:28:49.380Z,99780.67
2022-08-05T05:31:22.391Z,99784.18
2022-08-05T05:33:59.663Z,99784.18
2022-08-05T05:36:32.480Z,99791.27
2022-08-05T05:39:10.956Z,99791.67
2022-08-05T05:41:41.936Z,99791.67
2022-08-05T05:44:36.897Z,99788.06
2022-08-05T05:46:49.611Z,99788.91
2022-08-05T05:49:24.096Z,99784.37
2022-08-05T05:51:57.588Z,99784.37
2022-08-05T05:54:49.723Z,99781.25
2022-08-05T05:57:05.271Z,99780.30
2022-08-05T05:59:40.202Z,99782.95
2022-08-05T06:02:13.410Z,99782.06
2022-08-05T06:04:49.177Z,99784.23
2022-08-05T06:07:22.391Z,99781.98
2022-08-05T06:10:04.322Z,99784.59
2022-08-05T06:12:30.309Z,99782.77
2022-08-05T06:15:04.554Z,99790.29
2022-08-05T06:17:52.959Z,99796.05
2022-08-05T06:20:21.362Z,99808.06
2022-08-05T06:22:49.227Z,99823.61
2022-08-05T06:25:24.598Z,99826.72
2022-08-05T06:28:12.353Z,99829.74
2022-08-05T06:30:32.385Z,99840.39
2022-08-05T06:33:10.051Z,99828.77
2022-08-05T06:36:04.164Z,99818.91
2022-08-05T06:38:16.133Z,99822.41
2022-08-05T06:40:49.461Z,99820.15
2022-08-05T06:43:58.875Z,99831.66
2022-08-05T06:46:04.106Z,99836.95
2022-08-05T06:48:53.641Z,99838.22
2022-08-05T06:51:09.365Z,99841.67
2022-08-05T06:53:41.494Z,99846.08
2022-08-05T06:56:25.905Z,99838.42
2022-08-05T06:58:51.168Z,99833.02
2022-08-05T07:01:27.688Z,99837.44
2022-08-05T07:03:58.643Z,99830.69
2022-08-05T07:06:32.844Z,99835.54
2022-08-05T07:09:05.956Z,99839.92
2022-08-05T07:11:39.780Z,99847.46
2022-08-05T07:14:30.715Z,99849.63
2022-08-05T07:17:58.903Z,99840.65
2022-08-05T07:20:16.857Z,99850.34
2022-08-05T07:22:15.761Z,99848.05
2022-08-05T07:24:52.730Z,99848.36
2022-08-05T07:27:22.672Z,99844.70
2022-08-05T07:30:23.888Z,99843.30
2022-08-05T07:32:40.297Z,99837.88
2022-08-05T07:36:02.310Z,99836.00
2022-08-05T07:37:51.245Z,99835.52
2022-08-05T07:40:32.288Z,99829.26
2022-08-05T07:43:04.757Z,99823.00
2022-08-05T07:45:56.628Z,99830.50
2022-08-05T07:48:10.068Z,99824.60
2022-08-05T07:50:43.206Z,99830.30
2022-08-05T07:53:17.799Z,99827.02
2022-08-05T07:56:06.166Z,99826.89
2022-08-05T07:58:57.649Z,99829.91
2022-08-05T08:01:01.989Z,99827.61
2022-08-05T08:03:44.401Z,99818.20
2022-08-05T08:06:11.687Z,99822.19
2022-08-05T08:08:44.551Z,99818.96
2022-08-05T08:11:17.921Z,99818.47
2022-08-05T08:14:00.599Z,99823.38
2022-08-05T08:16:34.928Z,99826.41
2022-08-05T08:19:02.994Z,99820.98
2022-08-05T08:21:36.650Z,99812.01
2022-08-05T08:24:14.142Z,99816.38
2022-08-05T08:26:46.035Z,99809.52
2022-08-05T08:30:03.367Z,99814.37
2022-08-05T08:31:54.211Z,99815.61
2022-08-05T08:34:30.569Z,99813.78
2022-08-05T08:37:05.114Z,99812.22
2022-08-05T08:39:38.242Z,99808.38
2022-08-05T08:42:34.229Z,99809.56
2022-08-05T08:45:23.123Z,99808.09
2022-08-05T08:48:06.846Z,99802.95
2022-08-05T08:50:06.142Z,99805.44
2022-08-05T08:52:38.354Z,99797.23
2022-08-05T08:55:13.128Z,99802.47
2022-08-05T08:57:58.394Z,99804.61
2022-08-05T09:00:23.813Z,99801.45
2022-08-05T09:02:59.480Z,99800.52
2022-08-05T09:05:38.847Z,99795.91
2022-08-05T09:08:09.698Z,99793.91
2022-08-05T09:10:46.765Z,99794.16
2022-08-05T09:13:20.342Z,99796.34
2022-08-05T09:15:55.322Z,99788.78
2022-08-05T09:18:28.280Z,99779.93
2022-08-05T09:21:03.214Z,99783.16
2022-08-05T09:23:43.588Z,99785.02
2022-08-05T09:26:20.555Z,99783.27
2022-08-05T09:28:57.368Z,99769.77
2022-08-05T09:32:40.300Z,99769.14
2022-08-05T09:34:10.403Z,99773.86
2022-08-05T09:36:56.412Z,99775.05
2022-08-05T09:39:41.470Z,99775.41
2022-08-05T09:42:04.931Z,99771.38
2022-08-05T09:44:42.665Z,99767.53
2022-08-05T09:47:21.944Z,99761.52
2022-08-05T09:50:01.123Z,99752.34
2022-08-05T09:52:45.122Z,99741.03
2022-08-05T09:55:58.643Z,99749.81
2022-08-05T09:57:48.565Z,99749.27
2022-08-05T10:00:25.224Z,99763.42
2022-08-05T10:02:59.170Z,99769.91
2022-08-05T10:05:32.875Z,99781.27
2022-08-05T10:08:35.537Z,99786.83
2022-08-05T10:10:53.851Z,99798.65
2022-08-05T10:13:45.515Z,99811.80
2022-08-05T10:16:33.838Z,99806.18
2022-08-05T10:19:09.509Z,99800.61
2022-08-05T10:21:41.505Z,99784.72
2022-08-05T10:24:15.253Z,99791.12
2022-08-05T10:26:52.884Z,99792.22
2022-08-05T10:30:06.387Z,99798.17
2022-08-05T10:32:52.053Z,99793.84
2022-08-05T10:34:36.680Z,99789.52
2022-08-05T10:37:13.365Z,99787.37
2022-08-05T10:39:59.274Z,99785.26
2022-08-05T10:42:33.771Z,99799.17
2022-08-05T10:45:00.615Z,99812.66
2022-08-05T10:47:37.660Z,99819.93
2022-08-05T10:50:32.108Z,99822.67
2022-08-05T10:52:55.029Z,99820.53
2022-08-05T10:55:38.556Z,99821.95
2022-08-05T10:58:12.033Z,99820.70
2022-08-05T11:00:55.311Z,99818.98
2022-08-05T11:03:27.076Z,99820.82
2022-08-05T11:06:15.007Z,99818.65
2022-08-05T11:09:31.930Z,99821.80
2022-08-05T11:11:58.375Z,99828.98
2022-08-05T11:15:00.981Z,99841.95
2022-08-05T11:18:07.687Z,99839.32
2022-08-05T11:20:18.410Z,99842.42
2022-08-05T11:22:53.952Z,99843.78
2022-08-05T11:26:05.070Z,99843.78
2022-08-05T11:28:18.058Z,99848.70
2022-08-05T11:31:05.866Z,99854.95
2022-08-05T11:33:48.958Z,99851.39
2022-08-05T11:36:34.654Z,99848.73
2022-08-05T11:39:00.198Z,99847.81
2022-08-05T11:42:00.649Z,99845.14
2022-08-05T11:44:40.373Z,99839.78
2022-08-05T11:47:09.970Z,99833.56
2022-08-05T11:49:28.126Z,99835.80
2022-08-05T11:52:08.429Z,99834.92
2022-08-05T11:54:38.382Z,99833.58
2022-08-05T11:57:24.910Z,99836.25
2022-08-05T11:59:50.398Z,99829.56
2022-08-05T12:02:31.603Z,99824.20
2022-08-05T12:05:06.850Z,99826.00
2022-08-05T12:08:03.360Z,99817.55
2022-08-05T12:10:15.326Z,99814.03
2022-08-05T12:12:59.942Z,99806.09
2022-08-05T12:15:35.920Z,99805.68
2022-08-05T12:18:09.928Z,99799.95
2022-08-05T12:20:35.111Z,99800.86
2022-08-05T12:23:14.305Z,99803.54
2022-08-05T12:25:56.446Z,99811.58
2022-08-05T12:28:39.955Z,99818.74
2022-08-05T12:31:12.880Z,99821.88
2022-08-05T12:33:48.426Z,99829.92
2022-08-05T12:36:21.757Z,99837.97
2022-08-05T12:38:57.655Z,99846.94
2022-08-05T12:41:36.245Z,99858.11
2022-08-05T12:44:14.213Z,99858.14
2022-08-05T12:46:54.057Z,99868.84
2022-08-05T12:49:27.155Z,99868.41
2022-08-05T12:52:13.649Z,99868.40
2022-08-05T12:54:38.239Z,99875.09
2022-08-05T12:57:13.243Z,99874.23
2022-08-05T13:01:57.369Z,99875.59
2022-08-05T13:02:31.519Z,99877.36
2022-08-05T13:05:08.142Z,99882.31
2022-08-05T13:08:01.144Z,99883.22
2022-08-05T13:10:20.459Z,99880.58
2022-08-05T13:12:58.044Z,99886.41
2022-08-05T13:15:41.574Z,99890.41
2022-08-05T13:18:08.545Z,99905.59
2022-08-05T13:20:41.470Z,99905.17
2022-08-05T13:23:18.113Z,99905.25
2022-08-05T13:25:59.228Z,99908.44
2022-08-05T13:28:26.433Z,99907.64
2022-08-05T13:30:59.388Z,99905.99
2022-08-05T13:34:21.105Z,99912.27
2022-08-05T13:36:09.331Z,99914.95
2022-08-05T13:38:43.317Z,99908.31
2022-08-05T13:41:16.799Z,99918.59
2022-08-05T13:43:54.754Z,99923.48
2022-08-05T13:46:43.836Z,99923.09
2022-08-05T13:49:01.057Z,99917.77
2022-08-05T13:51:40.090Z,99905.78
2022-08-05T13:54:12.710Z,99900.91
2022-08-05T13:56:50.876Z,99902.68
2022-08-05T13:59:27.226Z,99893.80
2022-08-05T14:02:01.000Z,99893.80
2022-08-05T14:05:00.507Z,99884.47
2022-08-05T14:07:59.964Z,99878.27
2022-08-05T14:10:28.124Z,99876.94
2022-08-05T14:13:01.724Z,99870.72
2022-08-05T14:16:07.547Z,99861.45
2022-08-05T14:18:15.063Z,99858.78
2022-08-05T14:20:46.834Z,99858.77
2022-08-05T14:23:25.803Z,99863.66
2022-08-05T14:25:58.566Z,99862.75
2022-08-05T14:28:32.340Z,99864.11
2022-08-05T14:31:05.244Z,99867.65
2022-08-05T14:34:00.027Z,99864.97
2022-08-05T14:36:15.453Z,99860.51
2022-08-05T14:38:48.304Z,99859.17
2022-08-05T14:41:21.210Z,99854.72
2022-08-05T14:44:02.194Z,99856.05
2022-08-05T14:46:31.680Z,99862.70
2022-08-05T14:49:08.054Z,99858.27
2022-08-05T14:51:43.234Z,99859.57
2022-08-05T14:54:29.989Z,99864.45
2022-08-05T14:56:54.823Z,99862.66
2022-08-05T14:59:29.539Z,99862.25
2022-08-05T15:02:01.717Z,99860.02
2022-08-05T15:04:36.487Z,99859.59
2022-08-05T15:07:10.945Z,99860.93
2022-08-05T15:09:51.658Z,99860.91
2022-08-05T15:12:21.163Z,99857.30
2022-08-05T15:14:56.140Z,99860.42
2022-08-05T15:17:46.685Z,99854.61
2022-08-05T15:20:03.700Z,99846.58
2022-08-05T15:22:36.950Z,99847.42
2022-08-05T15:25:14.153Z,99845.20
2022-08-05T15:27:52.326Z,99850.52
2022-08-05T15:30:20.730Z,99843.38
2022-08-05T15:32:56.850Z,99837.56
2022-08-05T15:35:36.175Z,99833.98
2022-08-05T15:38:33.519Z,99833.02
2022-08-05T15:41:00.919Z,99830.74
2022-08-05T15:43:20.341Z,99834.73
2022-08-05T15:45:59.804Z,99833.39
2022-08-05T15:48:23.817Z,99833.39
2022-08-05T15:50:57.059Z,99820.42
2022-08-05T15:53:38.383Z,99834.66
2022-08-05T15:56:11.579Z,99833.73
2022-08-05T15:58:41.023Z,99835.96
2022-08-05T16:01:17.860Z,99838.14
2022-08-05T16:03:51.044Z,99838.52
2022-08-05T16:06:24.759Z,99847.84
2022-08-05T16:08:58.018Z,99845.17
2022-08-05T16:11:43.036Z,99845.61
2022-08-05T16:14:06.648Z,99844.28
2022-08-05T16:16:39.617Z,99847.42
2022-08-05T16:19:18.812Z,99848.77
2022-08-05T16:22:01.087Z,99854.15
2022-08-05T16:24:40.153Z,99858.65
2022-08-05T16:27:02.352Z,99862.23
2022-08-05T16:29:37.478Z,99866.73
2022-08-05T16:32:10.671Z,99869.86
2022-08-05T16:34:43.595Z,99865.00
2022-08-05T16:38:02.655Z,99871.27
2022-08-05T16:40:05.155Z,99869.04
2022-08-05T16:42:27.522Z,99871.73
2022-08-05T16:45:00.194Z,99875.34
2022-08-05T16:47:36.329Z,99870.87
2022-08-05T16:50:10.511Z,99856.23
2022-08-05T16:52:45.944Z,99860.72
2022-08-05T16:55:19.777Z,99860.27
2022-08-05T16:58:01.677Z,99854.94
2022-08-05T17:00:34.084Z,99854.95
2022-08-05T17:03:03.778Z,99854.09
2022-08-05T17:05:38.178Z,99849.23
2022-08-05T17:08:11.479Z,99849.25
2022-08-05T17:10:46.290Z,99848.39
2022-08-05T17:13:21.608Z,99847.94
2022-08-05T17:16:02.797Z,99847.08
2022-08-05T17:18:29.985Z,99848.85
2022-08-05T17:21:02.815Z,99854.23
2022-08-05T17:24:03.122Z,99847.14
2022-08-05T17:26:12.164Z,99852.03
2022-08-05T17:28:47.270Z,99853.83
2022-08-05T17:31:24.801Z,99853.83
2022-08-05T17:33:57.736Z,99861.38
2022-08-05T17:36:32.440Z,99860.97
2022-08-05T17:39:05.728Z,99861.44
2022-08-05T17:42:18.393Z,99854.30
2022-08-05T17:44:16.477Z,99864.09
2022-08-05T17:46:49.334Z,99862.31
2022-08-05T17:49:23.800Z,99864.53
2022-08-05T17:51:57.397Z,99866.78
2022-08-05T17:54:31.813Z,99868.12
2022-08-05T17:57:05.720Z,99865.02
2022-08-05T17:59:40.319Z,99865.02
2022-08-05T18:02:13.401Z,99875.24
2022-08-05T18:04:51.183Z,99881.91
2022-08-05T18:07:22.479Z,99876.99
2022-08-05T18:09:59.663Z,99879.23
2022-08-05T18:12:31.875Z,99881.86
2022-08-05T18:15:08.857Z,99880.11
2022-08-05T18:18:00.830Z,99884.98
2022-08-05T18:20:16.517Z,99883.19
2022-08-05T18:22:54.560Z,99884.10
2022-08-05T18:25:25.039Z,99882.77
2022-08-05T18:27:58.097Z,99882.77
2022-08-05T18:30:30.879Z,99880.97
2022-08-05T18:33:04.860Z,99886.77
2022-08-05T18:35:59.738Z,99883.19
2022-08-05T18:38:12.950Z,99887.19
2022-08-05T18:41:56.551Z,99884.98
2022-08-05T18:43:23.163Z,99876.57
2022-08-05T18:45:55.261Z,99869.91
2022-08-05T18:48:32.957Z,99873.45
2022-08-05T18:52:05.827Z,99861.46
2022-08-05T18:53:57.662Z,99870.80
2022-08-05T18:56:30.485Z,99864.59
2022-08-05T18:59:41.900Z,99866.81
2022-08-05T19:01:47.435Z,99869.93
2022-08-05T19:04:14.200Z,99868.14
2022-08-05T19:06:50.033Z,99862.40
2022-08-05T19:09:22.971Z,99862.40
2022-08-05T19:12:00.494Z,99866.81
2022-08-05T19:14:53.551Z,99869.02
2022-08-05T19:17:09.290Z,99875.69
2022-08-05T19:19:46.896Z,99861.48
2022-08-05T19:22:19.238Z,99861.48
2022-08-05T19:24:56.717Z,99861.48
2022-08-05T19:27:30.795Z,99865.48
2022-08-05T19:30:05.446Z,99860.16
2022-08-05T19:32:39.636Z,99861.94
2022-08-05T19:35:13.289Z,99860.16
2022-08-05T19:38:05.974Z,99863.28
2022-08-05T19:40:24.285Z,99859.28
2022-08-05T19:43:04.510Z,99860.16
2022-08-05T19:45:33.285Z,99861.07
2022-08-05T19:48:07.479Z,99860.16
2022-08-05T19:50:41.990Z,99858.41
2022-08-05T19:53:14.770Z,99860.62
2022-08-05T19:56:14.452Z,99857.96
2022-08-05T19:58:29.272Z,99858.84
2022-08-05T20:00:57.765Z,99855.75
2022-08-05T20:03:37.965Z,99845.09
2022-08-05T20:06:11.692Z,99847.76
2022-08-05T20:08:40.960Z,99847.77
2022-08-05T20:11:18.103Z,99832.66
2022-08-05T20:13:58.940Z,99830.45
2022-08-05T20:16:25.017Z,99833.12
2022-08-05T20:18:58.049Z,99822.02
2022-08-05T20:21:32.613Z,99817.59
2022-08-05T20:24:06.397Z,99823.38
2022-08-05T20:26:39.508Z,99817.11
2022-08-05T20:29:27.644Z,99818.02
2022-08-05T20:31:53.464Z,99819.34
2022-08-05T20:34:23.041Z,99818.02
2022-08-05T20:36:56.233Z,99820.22
2022-08-05T20:39:35.757Z,99814.44
2022-08-05T20:42:03.452Z,99809.12
2022-08-05T20:44:38.207Z,99800.70
2022-08-05T20:47:11.023Z,99801.13
2022-08-05T20:49:43.882Z,99804.25
2022-08-05T20:52:17.772Z,99795.38
2022-08-05T20:55:55.377Z,99803.83
2022-08-05T20:57:42.641Z,99806.03
2022-08-05T21:00:19.519Z,99806.03
2022-08-05T21:02:39.486Z,99811.35
2022-08-05T21:05:09.719Z,99808.69
2022-08-05T21:07:50.711Z,99816.22
2022-08-05T21:10:17.655Z,99812.69
2022-08-05T21:12:57.993Z,99813.55
2022-08-05T21:15:25.327Z,99807.36
2022-08-05T21:17:59.823Z,99816.67
2022-08-05T21:20:34.205Z,99818.45
2022-08-05T21:23:07.748Z,99820.20
2022-08-05T21:25:42.237Z,99815.34
2022-08-05T21:28:18.733Z,99809.56
2022-08-05T21:30:49.464Z,99810.02
2022-08-05T21:33:23.568Z,99809.56
2022-08-05T21:35:58.740Z,99808.23
2022-08-05T21:38:30.539Z,99808.23
2022-08-05T21:41:03.586Z,99809.13
2022-08-05T21:43:41.743Z,99803.81
2022-08-05T21:46:12.169Z,99797.61
2022-08-05T21:48:45.179Z,99795.82
2022-08-05T21:52:16.457Z,99786.96
2022-08-05T21:53:59.542Z,99780.72
2022-08-05T21:56:26.813Z,99785.17
2022-08-05T21:58:59.551Z,99786.04
2022-08-05T22:01:35.499Z,99781.17
2022-08-05T22:04:13.368Z,99773.19
2022-08-05T22:06:50.551Z,99772.31
2022-08-05T22:09:21.037Z,99769.19
2022-08-05T22:11:53.197Z,99766.53
2022-08-05T22:14:35.011Z,99761.22
2022-08-05T22:17:04.896Z,99757.22
2022-08-05T22:20:02.998Z,99755.44
2022-08-05T22:22:12.901Z,99751.91
2022-08-05T22:25:05.783Z,99756.34
2022-08-05T22:28:08.742Z,99747.45
2022-08-05T22:30:22.284Z,99757.69
2022-08-05T22:32:55.140Z,99766.55
2022-08-05T22:35:31.061Z,99767.42
2022-08-05T22:38:03.135Z,99752.78
2022-08-05T22:40:37.047Z,99752.36
2022-08-05T22:43:10.227Z,99749.69
2022-08-05T22:45:44.512Z,99747.03
2022-08-05T22:48:21.980Z,99745.24
2022-08-05T22:50:56.286Z,99745.70
2022-08-05T22:53:26.997Z,99745.24
2022-08-05T22:56:01.425Z,99743.91
2022-08-05T22:58:34.497Z,99741.25
2022-08-05T23:01:09.027Z,99742.13
2022-08-05T23:03:58.757Z,99745.25
2022-08-05T23:06:17.058Z,99746.58
2022-08-05T23:08:52.303Z,99743.92
2022-08-05T23:11:25.221Z,99742.59
2022-08-05T23:13:58.378Z,99748.79
2022-08-05T23:16:49.463Z,99752.36
2022-08-05T23:19:26.117Z,99755.89
2022-08-05T23:21:58.193Z,99756.77
2022-08-05T23:24:31.744Z,99757.22
2022-08-05T23:27:04.958Z,99763.87
2022-08-05T23:29:37.842Z,99748.36
2022-08-05T23:32:11.037Z,99754.55
2022-08-05T23:34:43.998Z,99755.45
2022-08-05T23:37:16.591Z,99760.77
2022-08-05T23:39:54.192Z,99757.20
2022-08-05T23:42:29.301Z,99766.97
2022-08-05T23:44:59.387Z,99771.84
2022-08-05T23:47:33.534Z,99781.61
2022-08-05T23:50:09.501Z,99771.39
2022-08-05T23:52:49.511Z,99770.97
2022-08-05T23:55:16.769Z,99779.82
2022-08-05T23:57:51.204Z,99774.08
